createdAt,value
2023-04-23T00:08:35.252Z,94.8
2023-04-23T00:23:56.391Z,89
2023-04-23T00:39:17.371Z,86.3
2023-04-23T00:54:38.318Z,81.8
2023-04-23T01:10:01.000Z,79.4
2023-04-23T01:25:20.000Z,80.9
2023-04-23T01:40:41.206Z,83
2023-04-23T01:56:02.174Z,88.8
2023-04-23T02:11:23.093Z,88.8
2023-04-23T02:26:44.061Z,97.1
2023-04-23T02:42:05.008Z,90.8
2023-04-23T02:57:25.969Z,90.5
2023-04-23T03:12:46.938Z,94.3
2023-04-23T03:28:07.000Z,92.9
2023-04-23T03:43:27.846Z,99
2023-04-23T03:58:48.754Z,96.3
2023-04-23T04:14:09.682Z,94.9
2023-04-23T04:29:30.599Z,92.6
2023-04-23T04:44:51.509Z,95.3
2023-04-23T05:00:12.450Z,94.5
2023-04-23T05:15:33.367Z,99
2023-04-23T05:30:53.310Z,98.8
2023-04-23T05:46:13.230Z,95.1
2023-04-23T06:01:33.000Z,92.7
2023-04-23T06:16:53.133Z,87
2023-04-23T06:32:14.000Z,87.1
2023-04-23T06:47:34.978Z,83.8
2023-04-23T07:02:55.896Z,85.3
2023-04-23T07:18:16.803Z,82.2
2023-04-23T07:33:39.000Z,83.9
2023-04-23T07:48:58.655Z,84.3
2023-04-23T08:04:19.000Z,92.5
2023-04-23T08:19:40.476Z,93.9
2023-04-23T08:35:01.416Z,89.8
2023-04-23T08:50:22.327Z,91.5
2023-04-23T09:05:43.251Z,88.5
2023-04-23T09:21:04.153Z,78.2
2023-04-23T09:36:24.123Z,74.6
2023-04-23T09:51:45.056Z,70
2023-04-23T10:07:05.988Z,72.2
2023-04-23T10:22:25.905Z,64.8
2023-04-23T10:37:46.876Z,65
2023-04-23T10:39:07.958Z,62.8
2023-04-23T10:40:29.023Z,63.7
2023-04-23T10:41:49.090Z,64.8
2023-04-23T10:43:09.232Z,59.5
2023-04-23T10:44:29.335Z,61.5
2023-04-23T10:45:49.398Z,60.7
2023-04-23T10:47:10.503Z,62.1
2023-04-23T10:48:31.588Z,60.8
2023-04-23T10:49:52.673Z,60.1
2023-04-23T10:51:13.753Z,61.7
2023-04-23T10:52:34.830Z,57.8
2023-04-23T10:53:55.910Z,58.8
2023-04-23T10:55:16.989Z,62.6
2023-04-23T10:56:38.050Z,62.6
2023-04-23T10:57:59.130Z,59.9
2023-04-23T10:59:20.169Z,61.6
2023-04-23T11:00:41.289Z,60.2
2023-04-23T11:02:02.374Z,61.6
2023-04-23T11:03:22.480Z,58.5
2023-04-23T11:04:43.538Z,59
2023-04-23T11:06:04.634Z,58.2
2023-04-23T11:07:25.710Z,59.7
2023-04-23T11:08:46.783Z,59.7
2023-04-23T11:10:07.862Z,61.3
2023-04-23T11:11:28.937Z,60
2023-04-23T11:12:49.047Z,61.6
2023-04-23T11:14:09.098Z,60
2023-04-23T11:15:29.228Z,62.1
2023-04-23T11:16:49.337Z,61.8
2023-04-23T11:18:10.378Z,63.4
2023-04-23T11:19:31.481Z,59.3
2023-04-23T11:20:52.563Z,56.4
2023-04-23T11:22:13.634Z,58
2023-04-23T11:23:34.689Z,58.9
2023-04-23T11:24:55.793Z,55.1
2023-04-23T11:26:16.875Z,58.5
2023-04-23T11:27:37.945Z,56.2
2023-04-23T11:28:59.022Z,56.3
2023-04-23T11:30:20.101Z,58
2023-04-23T11:31:41.178Z,58.6
2023-04-23T11:33:02.253Z,60.1
2023-04-23T11:34:22.325Z,58.9
2023-04-23T11:35:43.402Z,61.2
2023-04-23T11:37:04.518Z,57.2
2023-04-23T11:38:25.577Z,57.8
2023-04-23T11:39:46.626Z,60
2023-04-23T11:41:07.734Z,57.5
2023-04-23T11:42:28.787Z,56.5
2023-04-23T11:43:48.918Z,55.7
2023-04-23T11:45:09.020Z,57
2023-04-23T11:46:29.124Z,59.1
2023-04-23T11:47:49.181Z,58
2023-04-23T11:49:10.282Z,59.3
2023-04-23T11:50:31.362Z,58.6
2023-04-23T11:51:52.432Z,60.8
2023-04-23T11:53:13.496Z,60.2
2023-04-23T11:54:34.584Z,60.6
2023-04-23T11:55:57.000Z,56.9
2023-04-23T11:57:16.701Z,61
2023-04-23T11:58:37.820Z,60.1
2023-04-23T11:59:58.866Z,63.6
2023-04-23T12:01:19.971Z,57.4
2023-04-23T12:02:41.057Z,56
2023-04-23T12:04:02.132Z,57
2023-04-23T12:05:22.213Z,59.7
2023-04-23T12:06:43.301Z,57.8
2023-04-23T12:08:04.342Z,57.1
2023-04-23T12:09:27.000Z,56.9
2023-04-23T12:10:46.511Z,55.4
2023-04-23T12:12:07.583Z,54.9
2023-04-23T12:13:28.642Z,54.4
2023-04-23T12:14:48.783Z,55.6
2023-04-23T12:16:08.864Z,55
2023-04-23T12:17:29.946Z,51
2023-04-23T12:18:50.981Z,54.5
2023-04-23T12:20:12.068Z,54.4
2023-04-23T12:21:33.170Z,54.4
2023-04-23T12:22:56.000Z,52.5
2023-04-23T12:24:15.305Z,53.3
2023-04-23T12:25:38.000Z,54.4
2023-04-23T12:26:57.458Z,54.2
2023-04-23T12:28:18.531Z,53.4
2023-04-23T12:29:39.604Z,55.1
2023-04-23T12:31:00.662Z,55.9
2023-04-23T12:32:21.701Z,57.2
2023-04-23T12:33:41.832Z,58.9
2023-04-23T12:35:02.907Z,58.3
2023-04-23T12:36:23.984Z,57.6
2023-04-23T12:37:47.000Z,58.9
2023-04-23T12:39:06.093Z,57.1
2023-04-23T12:40:27.175Z,57.1
2023-04-23T12:41:48.283Z,55.7
2023-04-23T12:43:08.368Z,52.8
2023-04-23T12:44:28.461Z,54.3
2023-04-23T12:45:48.579Z,51.8
2023-04-23T12:47:08.659Z,50.6
2023-04-23T12:48:29.750Z,49.2
2023-04-23T12:49:50.816Z,49.7
2023-04-23T12:51:11.890Z,48.5
2023-04-23T12:52:32.975Z,46.1
2023-04-23T12:53:56.000Z,45.1
2023-04-23T12:55:15.131Z,49.4
2023-04-23T12:56:36.170Z,48.3
2023-04-23T12:57:57.270Z,45.3
2023-04-23T12:59:18.363Z,46.1
2023-04-23T13:00:39.448Z,45.2
2023-04-23T13:02:00.525Z,42
2023-04-23T13:03:21.606Z,45.2
2023-04-23T13:04:41.664Z,46.5
2023-04-23T13:06:02.763Z,45
2023-04-23T13:07:23.858Z,47.7
2023-04-23T13:08:44.905Z,46.9
2023-04-23T13:10:08.000Z,43.8
2023-04-23T13:11:27.042Z,43.8
2023-04-23T13:12:48.118Z,45.2
2023-04-23T13:14:08.258Z,45.4
2023-04-23T13:15:28.345Z,48.2
2023-04-23T13:16:48.418Z,42.7
2023-04-23T13:18:08.548Z,43.4
2023-04-23T13:19:28.646Z,44.4
2023-04-23T13:20:48.740Z,42.7
2023-04-23T13:22:09.826Z,45.2
2023-04-23T13:23:30.893Z,43.5
2023-04-23T13:24:51.944Z,44.1
2023-04-23T13:26:13.065Z,42.4
2023-04-23T13:27:34.140Z,43.8
2023-04-23T13:28:55.210Z,42.9
2023-04-23T13:30:16.281Z,42.7
2023-04-23T13:31:37.363Z,42.7
2023-04-23T13:32:58.438Z,43.2
2023-04-23T13:34:19.492Z,41.4
2023-04-23T13:35:40.610Z,40.9
2023-04-23T13:37:01.671Z,43
2023-04-23T13:38:21.782Z,41.3
2023-04-23T13:39:42.847Z,42.5
2023-04-23T13:41:03.897Z,44.6
2023-04-23T13:42:24.993Z,41.7
2023-04-23T13:43:46.073Z,42.3
2023-04-23T13:45:07.152Z,41.2
2023-04-23T13:46:28.243Z,45.7
2023-04-23T13:47:48.340Z,45.4
2023-04-23T13:49:08.428Z,41.5
2023-04-23T13:50:28.530Z,41.4
2023-04-23T13:51:48.628Z,42.3
2023-04-23T13:53:09.677Z,43
2023-04-23T13:54:30.753Z,43.2
2023-04-23T13:55:51.834Z,43.1
2023-04-23T13:57:12.926Z,43.6
2023-04-23T13:58:36.000Z,43.1
2023-04-23T13:59:55.065Z,45.6
2023-04-23T14:01:16.155Z,40.3
2023-04-23T14:02:37.251Z,45
2023-04-23T14:03:58.320Z,41.5
2023-04-23T14:05:19.390Z,45.7
2023-04-23T14:06:40.482Z,45.1
2023-04-23T14:08:01.553Z,47.1
2023-04-23T14:09:21.639Z,51.2
2023-04-23T14:10:42.728Z,47.9
2023-04-23T14:12:03.798Z,45.1
2023-04-23T14:13:24.876Z,48.6
2023-04-23T14:14:45.973Z,47.8
2023-04-23T14:16:07.047Z,41.7
2023-04-23T14:17:28.112Z,44.1
2023-04-23T14:18:48.213Z,45.6
2023-04-23T14:20:08.321Z,42
2023-04-23T14:21:28.000Z,41.4
2023-04-23T14:22:48.524Z,43.5
2023-04-23T14:24:09.611Z,44
2023-04-23T14:25:30.645Z,43.8
2023-04-23T14:26:53.000Z,43
2023-04-23T14:28:12.834Z,44.8
2023-04-23T14:30:57.000Z,43
2023-04-23T14:32:16.000Z,41.6
2023-04-23T14:33:37.137Z,43.4
2023-04-23T14:34:58.212Z,39.7
2023-04-23T14:36:19.278Z,40.1
2023-04-23T14:37:42.000Z,43.2
2023-04-23T14:39:01.422Z,44.2
2023-04-23T14:40:23.000Z,41.1
2023-04-23T14:41:42.583Z,41.9
2023-04-23T14:43:03.685Z,43.9
2023-04-23T14:44:24.753Z,42.2
2023-04-23T14:45:45.836Z,46.6
2023-04-23T14:47:09.000Z,42.5
2023-04-23T14:48:27.997Z,42.4
2023-04-23T14:49:49.067Z,42.3
2023-04-23T14:51:09.165Z,42.7
2023-04-23T14:52:29.266Z,40.5
2023-04-23T14:53:49.000Z,38.6
2023-04-23T14:55:09.476Z,39.2
2023-04-23T14:56:30.000Z,41.4
2023-04-23T14:57:51.610Z,41
2023-04-23T14:59:12.000Z,39.9
2023-04-23T15:00:33.767Z,39.8
2023-04-23T15:01:54.822Z,41.2
2023-04-23T15:03:15.911Z,42.2
2023-04-23T15:04:37.001Z,46.8
2023-04-23T15:05:58.070Z,41
2023-04-23T15:07:20.000Z,43.6
2023-04-23T15:08:39.239Z,40.9
2023-04-23T15:10:00.000Z,44.7
2023-04-23T15:11:21.401Z,42.2
2023-04-23T15:12:42.478Z,44.4
2023-04-23T15:14:03.524Z,45.1
2023-04-23T15:15:24.598Z,45.5
2023-04-23T15:16:45.699Z,44.1
2023-04-23T15:18:06.739Z,49.5
2023-04-23T15:19:27.850Z,45.5
2023-04-23T15:20:48.906Z,45.3
2023-04-23T15:22:10.125Z,46.9
2023-04-23T15:23:30.000Z,55.5
2023-04-23T15:24:51.278Z,50.5
2023-04-23T15:26:12.346Z,55.6
2023-04-23T15:27:33.413Z,51.9
2023-04-23T15:28:54.000Z,50.8
2023-04-23T15:30:15.563Z,54.3
2023-04-23T15:31:36.632Z,53.4
2023-04-23T15:32:57.717Z,52.3
2023-04-23T15:34:18.801Z,53.1
2023-04-23T15:35:39.841Z,51.1
2023-04-23T15:37:00.000Z,49.6
2023-04-23T15:38:21.995Z,49.8
2023-04-23T15:39:43.074Z,51.9
2023-04-23T15:41:03.156Z,50.6
2023-04-23T15:42:24.223Z,52
2023-04-23T15:43:45.301Z,50.7
2023-04-23T15:45:06.367Z,53.4
2023-04-23T15:46:27.436Z,52.8
2023-04-23T15:47:48.492Z,52.2
2023-04-23T15:49:09.566Z,52.5
2023-04-23T15:50:29.663Z,53.9
2023-04-23T15:51:49.729Z,53.7
2023-04-23T15:53:09.839Z,55.1
2023-04-23T15:54:29.905Z,53.1
2023-04-23T15:55:50.000Z,56.2
2023-04-23T15:57:12.056Z,55.2
2023-04-23T15:58:33.129Z,52.9
2023-04-23T15:59:54.193Z,53.8
2023-04-23T16:01:15.000Z,47.5
2023-04-23T16:02:36.323Z,46.6
2023-04-23T16:03:57.407Z,45.1
2023-04-23T16:05:18.464Z,45.3
2023-04-23T16:06:39.545Z,45.4
2023-04-23T16:08:00.616Z,48.4
2023-04-23T16:09:21.678Z,46.2
2023-04-23T16:10:42.750Z,48.9
2023-04-23T16:12:02.831Z,51.3
2023-04-23T16:13:23.897Z,56.1
2023-04-23T16:14:44.958Z,51.9
2023-04-23T16:16:06.022Z,53.8
2023-04-23T16:17:27.090Z,53.5
2023-04-23T16:18:48.160Z,57.9
2023-04-23T16:20:09.241Z,54.1
2023-04-23T16:21:29.337Z,53.6
2023-04-23T16:22:49.419Z,50.5
2023-04-23T16:24:11.000Z,53.4
2023-04-23T16:25:30.577Z,48.1
2023-04-23T16:26:50.673Z,49.3
2023-04-23T16:28:11.751Z,49.1
2023-04-23T16:29:32.813Z,50.5
2023-04-23T16:30:53.881Z,52.5
2023-04-23T16:32:17.000Z,53.4
2023-04-23T16:33:36.013Z,54.3
2023-04-23T16:34:57.075Z,53.3
2023-04-23T16:36:18.146Z,52.4
2023-04-23T16:37:39.209Z,54
2023-04-23T16:39:00.272Z,53.1
2023-04-23T16:40:21.349Z,52.7
2023-04-23T16:41:42.418Z,56.6
2023-04-23T16:43:03.475Z,51.6
2023-04-23T16:44:23.563Z,51.6
2023-04-23T16:45:44.627Z,53.9
2023-04-23T16:47:05.691Z,53.6
2023-04-23T16:48:26.750Z,51.8
2023-04-23T16:49:47.827Z,51.5
2023-04-23T16:51:08.905Z,54.1
2023-04-23T16:52:29.008Z,51.7
2023-04-23T16:53:49.098Z,53.1
2023-04-23T16:55:09.198Z,54.6
2023-04-23T16:56:29.272Z,54.9
2023-04-23T16:57:50.341Z,55.3
2023-04-23T16:59:11.408Z,54.9
2023-04-23T17:00:32.479Z,56.8
2023-04-23T17:01:53.533Z,54
2023-04-23T17:03:14.609Z,56.5
2023-04-23T17:04:35.668Z,54.5
2023-04-23T17:05:56.728Z,54.4
2023-04-23T17:07:17.800Z,55.8
2023-04-23T17:08:38.877Z,54.9
2023-04-23T17:11:20.995Z,53.9
2023-04-23T17:12:42.067Z,56.6
2023-04-23T17:14:02.151Z,54.6
2023-04-23T17:15:23.221Z,55.3
2023-04-23T17:16:44.275Z,54.5
2023-04-23T17:18:05.353Z,55.7
2023-04-23T17:19:26.436Z,57.3
2023-04-23T17:20:49.000Z,57.9
2023-04-23T17:22:08.564Z,58
2023-04-23T17:23:29.634Z,59.8
2023-04-23T17:24:49.711Z,60.4
2023-04-23T17:26:09.790Z,60.7
2023-04-23T17:27:30.859Z,60.2
2023-04-23T17:28:50.952Z,60.6
2023-04-23T17:30:11.044Z,58
2023-04-23T17:31:32.111Z,59
2023-04-23T17:32:53.179Z,59.5
2023-04-23T17:34:14.234Z,59.4
2023-04-23T17:35:35.312Z,58.6
2023-04-23T17:36:58.000Z,58.6
2023-04-23T17:38:17.427Z,59.4
2023-04-23T17:39:38.501Z,59.7
2023-04-23T17:40:59.555Z,60.1
2023-04-23T17:42:20.638Z,59.9
2023-04-23T17:43:41.702Z,60.2
2023-04-23T17:45:02.762Z,60.9
2023-04-23T17:46:24.029Z,60.4
2023-04-23T17:47:43.920Z,61.4
2023-04-23T17:49:04.968Z,61.8
2023-04-23T17:50:26.039Z,60.8
2023-04-23T17:51:47.097Z,63.1
2023-04-23T17:53:10.000Z,62
2023-04-23T17:54:29.239Z,63.4
2023-04-23T17:55:50.302Z,62.2
2023-04-23T17:57:11.519Z,62.5
2023-04-23T17:58:31.597Z,63.8
2023-04-23T17:59:51.885Z,62.9
2023-04-23T18:01:12.882Z,63.6
2023-04-23T18:02:34.143Z,63.5
2023-04-23T18:03:55.011Z,62.6
2023-04-23T18:05:16.074Z,62.9
2023-04-23T18:06:37.144Z,63.8
2023-04-23T18:07:58.220Z,64.7
2023-04-23T18:09:19.276Z,63.8
2023-04-23T18:10:40.343Z,63.9
2023-04-23T18:12:01.415Z,64.2
2023-04-23T18:13:22.479Z,64.6
2023-04-23T18:14:43.548Z,64.4
2023-04-23T18:16:04.606Z,65.2
2023-04-23T18:17:25.670Z,65.4
2023-04-23T18:18:45.752Z,65.5
2023-04-23T18:20:06.819Z,66
2023-04-23T18:21:27.885Z,65.7
2023-04-23T18:22:48.964Z,66
2023-04-23T18:24:10.022Z,66.5
2023-04-23T18:25:31.084Z,66.9
2023-04-23T18:26:52.145Z,67.3
2023-04-23T18:28:12.244Z,67.3
2023-04-23T18:29:33.636Z,67.7
2023-04-23T18:30:53.528Z,67.3
2023-04-23T18:32:14.729Z,66.9
2023-04-23T18:33:35.782Z,68.1
2023-04-23T18:34:56.867Z,68
2023-04-23T18:36:17.927Z,67.5
2023-04-23T18:37:38.979Z,67.8
2023-04-23T18:39:00.049Z,68.2
2023-04-23T18:40:21.130Z,69.2
2023-04-23T18:41:42.184Z,70.3
2023-04-23T18:43:03.451Z,69.9
2023-04-23T18:44:24.320Z,70.3
2023-04-23T18:45:45.417Z,69.3
2023-04-23T18:47:06.499Z,69.2
2023-04-23T18:48:27.549Z,68.9
2023-04-23T18:49:47.632Z,69.3
2023-04-23T18:51:08.745Z,69.6
2023-04-23T18:52:29.848Z,70.3
2023-04-23T18:53:50.969Z,71
2023-04-23T18:55:12.068Z,71.1
2023-04-23T18:56:33.187Z,71
2023-04-23T18:57:56.000Z,71.5
2023-04-23T18:59:14.434Z,71.6
2023-04-23T19:00:34.558Z,71.2
2023-04-23T19:01:54.687Z,72
2023-04-23T19:03:14.811Z,71.7
2023-04-23T19:04:35.920Z,72.4
2023-04-23T19:05:59.000Z,72.8
2023-04-23T19:07:18.144Z,72.2
2023-04-23T19:08:39.253Z,72.2
2023-04-23T19:10:00.373Z,72.2
2023-04-23T19:11:21.476Z,72.4
2023-04-23T19:12:42.586Z,72.8
2023-04-23T19:14:03.692Z,72.7
2023-04-23T19:15:24.806Z,73
2023-04-23T19:16:45.919Z,73.2
2023-04-23T19:18:07.030Z,73
2023-04-23T19:19:28.130Z,73.3
2023-04-23T19:20:48.264Z,73.9
2023-04-23T19:22:11.000Z,73.8
2023-04-23T19:23:30.488Z,73.7
2023-04-23T19:24:51.597Z,74.4
2023-04-23T19:26:12.712Z,74.8
2023-04-23T19:27:33.810Z,74.2
2023-04-23T19:28:54.932Z,74.3
2023-04-23T19:30:15.059Z,74.5
2023-04-23T19:31:35.175Z,74.7
2023-04-23T19:32:55.305Z,74.9
2023-04-23T19:34:15.000Z,75.4
2023-04-23T19:35:36.551Z,75.6
2023-04-23T19:36:57.669Z,76.2
2023-04-23T19:38:17.792Z,76.5
2023-04-23T19:39:38.911Z,77
2023-04-23T19:41:00.015Z,76.8
2023-04-23T19:42:21.109Z,75.9
2023-04-23T19:43:42.228Z,76
2023-04-23T19:45:03.347Z,75.9
2023-04-23T19:46:24.441Z,76.6
2023-04-23T19:47:45.550Z,77.2
2023-04-23T19:49:06.675Z,77.2
2023-04-23T19:50:27.782Z,77.2
2023-04-23T19:51:48.884Z,77.7
2023-04-23T19:53:09.985Z,77.9
2023-04-23T19:54:31.099Z,78.2
2023-04-23T19:55:51.226Z,78.4
2023-04-23T19:57:12.324Z,78.7
2023-04-23T19:58:33.428Z,78.7
2023-04-23T19:59:54.554Z,79.5
2023-04-23T20:01:14.696Z,79
2023-04-23T20:02:34.808Z,79.5
2023-04-23T20:03:55.936Z,80
2023-04-23T20:05:16.066Z,80.3
2023-04-23T20:06:36.182Z,80.4
2023-04-23T20:07:57.296Z,80.7
2023-04-23T20:09:18.407Z,81.2
2023-04-23T20:10:39.512Z,81.1
2023-04-23T20:12:00.624Z,81.4
2023-04-23T20:13:21.745Z,81.5
2023-04-23T20:14:42.837Z,81.2
2023-04-23T20:16:03.954Z,81.4
2023-04-23T20:17:25.052Z,80.9
2023-04-23T20:18:46.170Z,81.3
2023-04-23T20:20:07.270Z,81.4
2023-04-23T20:21:28.382Z,81
2023-04-23T20:22:49.506Z,81.7
2023-04-23T20:24:09.611Z,82
2023-04-23T20:25:30.735Z,82.4
2023-04-23T20:26:51.829Z,82.7
2023-04-23T20:28:12.945Z,82.4
2023-04-23T20:29:34.042Z,82.2
2023-04-23T20:30:55.157Z,82.3
2023-04-23T20:32:16.275Z,82.4
2023-04-23T20:33:36.406Z,82.6
2023-04-23T20:34:58.000Z,82.6
2023-04-23T20:36:16.669Z,82.7
2023-04-23T20:37:36.780Z,82.6
2023-04-23T20:38:57.907Z,82.9
2023-04-23T20:40:19.021Z,82.9
2023-04-23T20:41:40.102Z,82.4
2023-04-23T20:43:01.225Z,82.7
2023-04-23T20:44:22.320Z,83.1
2023-04-23T20:45:43.442Z,83.7
2023-04-23T20:47:04.556Z,83.3
2023-04-23T20:48:25.650Z,83.4
2023-04-23T20:49:46.772Z,84.1
2023-04-23T20:51:07.870Z,84.5
2023-04-23T20:52:28.985Z,84.5
2023-04-23T20:53:50.099Z,84.9
2023-04-23T20:55:10.216Z,84.8
2023-04-23T20:56:31.333Z,85
2023-04-23T20:57:52.435Z,85.3
2023-04-23T20:59:13.532Z,85.6
2023-04-23T21:00:34.641Z,84.9
2023-04-23T21:01:55.757Z,85.2
2023-04-23T21:03:16.871Z,85
2023-04-23T21:04:36.990Z,85.1
2023-04-23T21:05:57.129Z,86
2023-04-23T21:07:17.258Z,86
2023-04-23T21:08:37.567Z,86.2
2023-04-23T21:09:58.478Z,86.1
2023-04-23T21:11:19.791Z,86.3
2023-04-23T21:12:40.720Z,86.5
2023-04-23T21:14:01.820Z,86.7
2023-04-23T21:15:22.920Z,86.7
2023-04-23T21:16:44.028Z,86.9
2023-04-23T21:18:05.142Z,86.9
2023-04-23T21:19:26.233Z,87.5
2023-04-23T21:20:47.365Z,87.7
2023-04-23T21:22:08.461Z,88.2
2023-04-23T21:23:29.565Z,88.4
2023-04-23T21:24:50.877Z,88.2
2023-04-23T21:26:10.821Z,87.9
2023-04-23T21:27:31.922Z,87.7
2023-04-23T21:28:53.032Z,87.8
2023-04-23T21:30:14.131Z,87.7
2023-04-23T21:31:35.242Z,87.8
2023-04-23T21:32:56.000Z,87.9
2023-04-23T21:34:17.455Z,88.3
2023-04-23T21:35:37.590Z,88.3
2023-04-23T21:36:57.727Z,88.5
2023-04-23T21:38:17.000Z,88.8
2023-04-23T21:39:37.964Z,89
2023-04-23T21:40:59.077Z,89
2023-04-23T21:42:20.195Z,88.7
2023-04-23T21:43:41.000Z,89
2023-04-23T21:45:02.394Z,89
2023-04-23T21:46:23.000Z,88.8
2023-04-23T21:47:44.626Z,89.2
2023-04-23T21:49:05.750Z,89.4
2023-04-23T21:50:26.843Z,89.4
2023-04-23T21:51:47.951Z,89.5
2023-04-23T21:53:09.053Z,89.6
2023-04-23T21:54:30.167Z,89.3
2023-04-23T21:55:51.276Z,89.3
2023-04-23T21:57:11.404Z,89.3
2023-04-23T21:58:32.500Z,89.7
2023-04-23T21:59:53.613Z,90.1
2023-04-23T22:01:14.728Z,90.2
2023-04-23T22:02:35.000Z,90.1
2023-04-23T22:03:56.936Z,89.6
2023-04-23T22:05:18.053Z,89.9
2023-04-23T22:06:38.192Z,90.3
2023-04-23T22:07:58.330Z,90
2023-04-23T22:09:19.418Z,90
2023-04-23T22:10:39.564Z,90.1
2023-04-23T22:11:59.679Z,90.2
2023-04-23T22:13:20.000Z,89.9
2023-04-23T22:14:41.910Z,90.1
2023-04-23T22:16:03.024Z,90.1
2023-04-23T22:17:24.119Z,90
2023-04-23T22:18:45.000Z,89.9
2023-04-23T22:20:08.000Z,89.6
2023-04-23T22:21:27.000Z,89.9
2023-04-23T22:22:48.557Z,90.1
2023-04-23T22:24:09.000Z,89.6
2023-04-23T22:25:30.765Z,90.1
2023-04-23T22:26:51.877Z,90.1
2023-04-23T22:28:12.998Z,89.9
2023-04-23T22:29:33.109Z,90
2023-04-23T22:30:54.207Z,90.2
2023-04-23T22:32:15.345Z,90.3
2023-04-23T22:33:36.000Z,90.2
2023-04-23T22:34:57.000Z,89.9
2023-04-23T22:36:18.649Z,89.9
2023-04-23T22:37:39.000Z,89.4
2023-04-23T22:38:59.887Z,89.6
2023-04-23T22:40:20.028Z,89.3
2023-04-23T22:41:41.127Z,89.9
2023-04-23T22:43:02.238Z,89.7
2023-04-23T22:44:23.344Z,89.5
2023-04-23T22:45:44.459Z,89.5
2023-04-23T22:47:05.000Z,89.8
2023-04-23T22:48:26.000Z,90
2023-04-23T22:49:47.766Z,90.1
2023-04-23T22:51:08.000Z,89.8
2023-04-23T22:52:29.980Z,89.9
2023-04-23T22:53:51.111Z,90
2023-04-23T22:55:12.215Z,89.5
2023-04-23T22:56:33.326Z,89.3
2023-04-23T22:57:53.459Z,89.2
2023-04-23T22:59:14.556Z,88.9
2023-04-23T23:00:35.658Z,89
2023-04-23T23:01:56.000Z,89.3
2023-04-23T23:03:17.874Z,89.7
2023-04-23T23:04:38.000Z,90
2023-04-23T23:06:00.087Z,90.5
2023-04-23T23:07:20.226Z,90.9
2023-04-23T23:08:42.000Z,91.2
2023-04-23T23:10:00.469Z,91.4
2023-04-23T23:25:20.453Z,86.5
2023-04-23T23:40:41.437Z,87.4
2023-04-23T23:56:02.393Z,89.9
